Leeuwarden Air Base

EHLW · Friesland, 荷兰

罗盘
风向 的 风向 的 风向 到 风向 050° Leeuwarden Air Base 5/23
风: 4 kt, 2 beaufort

4 kt

改变
0 1.000 2.000 3.000 4.000 5.000
SCT 2.900 ft
OVC 3.300 ft
METAR EHLW 022325Z AUTO 05004KT 010V080 9999 SCT029 OVC033 03/00 Q1026 BLU

METAR Leeuwarden Air Base - EHLW/LWR

Leeuwarden Air Base是,荷兰中的中型机场。 该机场有2条跑道: 5/23 和 9/27. 该领域的国际民航组织标志是EHLW 它的国际航空运输协会代码是LWR.

这份报告是针对2022年12月3日 00:25, 当地时间在Leeuwarden Air Base进行的。

机场观察

风向为050°,速度为4 kt。 风向在010°和080°之间变化。

可见度为10 km 或者更多。

有疏云,零星散落的云朵在2.900 ft的高度 和 乌云密布在3.300 ft的高度。 破损或更高的上限为3.300 ft。

温度为3 °C,阵风为-1 °C。 海平面上的气压为1026 hPa (QNH)。

白天

今天,太阳从08:29升起,在16:22降落。 这适用于Leeuwarden Air Base,世界夏令时可能有所不同。 当地时间与世界标准时间之间的时差为+1 小时。 当前,没有夏令时有效。

公司介绍

我们没有关于这个机场的公司信息。

体会

到Vliegles.nl去找飞行课程,跳伞和其他飞行体验。 浏览页面,了解Leeuwarden Air Base附近所有可用的活动。 你也可以使用搜索功能来寻找你所在地附近的特定飞行课程、跳伞或其他飞行体验。

跑道

Id 标题 侧风 逆风 侧风 %
5/23 054°-234° 4 kt 7 %
9/27 088°-268° 2 kt 3 kt 62 %

逆风成分最大的方向会被突出显示,并用于横风计算。 这并不一定意味着这个方向在使用。

乌云

2.900 ft SCT 疏云,零星散落的云朵
3.300 ft OVC 乌云密布

温度 & 天气

温度 3 °C
露点 0 °C
相对湿度 81%
风寒 -1 °C
Kp-index 2 (0-9)

白天

日出
08:29 (7:32)
中午
12:26
日落
16:22

小工具

你想在你的网站上有一个关于Leeuwarden Air Base的当前航空天气(METAR)的小部件吗?

显示HTML代码

我们和第三方通过cookies跟踪您在我们网站上的互联网行为。如果你继续,我们认为你同意我们的饼干政策